Time;durP1;ratioP1;P1;durP2;ratioP2;P2;SDS_P1;SDS_P2;PMS_P1;PMS_P2;Temp;Humidity;BMP_temperature;BMP_pressure;BME280_temperature;BME280_humidity;BME280_pressure;Samples;Min_cycle;Max_cycle;Signal;HPM_P1;HPM_P2
2022/08/04 00:00:10;;;;;;;4.82;3.25;;;27.90;53.00;;;;;;5113536;28;20028;-77
2022/08/04 00:02:39;;;;;;;4.30;3.42;;;27.70;52.30;;;;;;5095304;28;20497;-78
2022/08/04 00:05:07;;;;;;;4.57;3.40;;;27.80;52.60;;;;;;5113322;28;20032;-77
2022/08/04 00:07:47;;;;;;;4.60;3.10;;;28.00;52.50;;;;;;5113498;28;20061;-75
2022/08/04 00:10:17;;;;;;;5.40;3.10;;;28.10;51.90;;;;;;5113438;28;20023;-76
2022/08/04 00:12:48;;;;;;;5.00;3.13;;;28.20;51.80;;;;;;5113499;28;20355;-75
2022/08/04 00:15:16;;;;;;;3.90;3.20;;;28.30;51.90;;;;;;5113300;28;20466;-75
2022/08/04 00:17:59;;;;;;;4.82;3.80;;;28.50;51.70;;;;;;5113296;28;20436;-77
2022/08/04 00:20:32;;;;;;;5.03;3.25;;;28.40;51.70;;;;;;5113309;28;20377;-76
2022/08/04 00:23:00;;;;;;;4.47;3.42;;;28.40;51.70;;;;;;5113234;28;20015;-76
2022/08/04 00:25:27;;;;;;;4.45;3.50;;;28.40;52.00;;;;;;5113234;28;20020;-76
2022/08/04 00:27:53;;;;;;;4.72;3.58;;;28.30;51.90;;;;;;5113154;28;20035;-75
2022/08/04 00:30:20;;;;;;;5.30;3.10;;;28.20;52.10;;;;;;5113190;28;20374;-76
2022/08/04 00:32:46;;;;;;;6.13;4.85;;;28.20;52.50;;;;;;5113381;28;20175;-76
2022/08/04 00:35:15;;;;;;;6.20;3.42;;;28.10;52.90;;;;;;5113138;28;20022;-76
2022/08/04 00:37:44;;;;;;;6.13;3.70;;;28.00;53.40;;;;;;5113049;28;20473;-75
2022/08/04 00:40:18;;;;;;;6.45;3.78;;;28.00;53.20;;;;;;5113072;28;20020;-76
2022/08/04 00:42:50;;;;;;;4.95;3.80;;;27.80;53.40;;;;;;5112460;28;20031;-75
2022/08/04 00:45:40;;;;;;;5.60;3.85;;;27.90;53.60;;;;;;5112592;28;20118;-75
2022/08/04 00:48:35;;;;;;;5.10;4.30;;;27.90;53.50;;;;;;5113094;28;20478;-75
2022/08/04 00:51:36;;;;;;;5.07;3.90;;;28.00;53.60;;;;;;5107872;28;20046;-75
2022/08/04 00:54:30;;;;;;;4.53;3.72;;;27.90;53.40;;;;;;5096159;28;20434;-76
2022/08/04 00:56:59;;;;;;;5.78;3.78;;;27.90;53.50;;;;;;5113088;28;20466;-75
2022/08/04 00:59:45;;;;;;;5.00;3.92;;;27.90;53.50;;;;;;5112934;28;20462;-76
2022/08/04 01:02:14;;;;;;;4.72;3.65;;;27.80;54.10;;;;;;5094606;28;20047;-76
2022/08/04 01:04:39;;;;;;;4.40;3.67;;;27.70;53.70;;;;;;5116633;28;20095;-76
2022/08/04 01:07:29;;;;;;;7.85;3.58;;;27.50;54.10;;;;;;5116840;28;20127;-75
2022/08/04 01:10:07;;;;;;;5.47;3.77;;;27.60;54.40;;;;;;5116867;28;20049;-75
2022/08/04 01:12:56;;;;;;;4.88;3.47;;;27.70;54.10;;;;;;5116625;28;20034;-75
2022/08/04 01:15:45;;;;;;;4.47;3.60;;;27.40;54.60;;;;;;5116652;28;20474;-75
2022/08/04 01:18:26;;;;;;;6.57;3.53;;;27.30;54.70;;;;;;5116797;28;20024;-76
2022/08/04 01:21:19;;;;;;;5.35;3.88;;;26.90;55.20;;;;;;5116355;28;20024;-75
2022/08/04 01:24:03;;;;;;;5.85;3.70;;;26.90;55.40;;;;;;5116444;28;20089;-75
2022/08/04 01:26:40;;;;;;;5.47;3.70;;;27.20;55.10;;;;;;5116375;28;20085;-76
2022/08/04 01:29:11;;;;;;;5.20;3.60;;;27.00;54.70;;;;;;5116472;28;20381;-75
2022/08/04 01:31:39;;;;;;;5.97;4.00;;;27.20;55.20;;;;;;5116182;28;20027;-75
2022/08/04 01:34:09;;;;;;;5.45;3.90;;;27.50;54.90;;;;;;5116518;28;20019;-75
2022/08/04 01:36:34;;;;;;;5.30;3.70;;;27.60;54.60;;;;;;5116394;28;20149;-76
2022/08/04 01:39:39;;;;;;;6.18;4.22;;;27.70;54.50;;;;;;5116146;28;20098;-75
2022/08/04 01:41:52;;;;;;;4.68;4.05;;;27.90;54.40;;;;;;5115961;28;20036;-76
2022/08/04 01:44:18;;;;;;;7.65;4.10;;;27.80;54.40;;;;;;5115647;28;20039;-75
2022/08/04 01:46:48;;;;;;;5.50;4.20;;;27.80;54.70;;;;;;5116155;28;20053;-75
2022/08/04 01:49:15;;;;;;;6.20;4.28;;;27.70;54.70;;;;;;5115998;28;20028;-76
2022/08/04 01:51:43;;;;;;;5.68;4.55;;;27.60;54.60;;;;;;5115969;28;20074;-76
2022/08/04 01:54:09;;;;;;;7.93;5.07;;;27.60;54.90;;;;;;5116083;28;20390;-75
2022/08/04 01:56:35;;;;;;;5.63;4.70;;;27.60;55.00;;;;;;5115937;28;20470;-75
2022/08/04 01:59:02;;;;;;;5.25;4.18;;;27.50;55.00;;;;;;5115615;28;20428;-76
2022/08/04 02:01:28;;;;;;;6.95;4.63;;;27.30;55.40;;;;;;5115904;28;20023;-76
2022/08/04 02:03:54;;;;;;;5.82;3.80;;;27.20;55.60;;;;;;5115818;28;20077;-76
2022/08/04 02:06:30;;;;;;;6.95;4.50;;;27.10;55.60;;;;;;5115575;28;20100;-76
2022/08/04 02:09:52;;;;;;;5.95;4.50;;;27.10;55.50;;;;;;5115723;28;20051;-75
2022/08/04 02:12:54;;;;;;;7.43;4.30;;;27.20;55.10;;;;;;5110099;28;20028;-75
2022/08/04 02:15:30;;;;;;;5.80;4.50;;;27.30;55.20;;;;;;5115516;28;20057;-75
2022/08/04 02:18:01;;;;;;;5.55;4.63;;;27.20;55.20;;;;;;5115445;28;20020;-76
2022/08/04 02:20:33;;;;;;;7.07;4.63;;;27.30;55.20;;;;;;5115545;28;20019;-76
2022/08/04 02:23:12;;;;;;;6.07;4.88;;;27.30;55.40;;;;;;5115317;28;20020;-75
2022/08/04 02:25:59;;;;;;;6.57;4.50;;;27.30;55.50;;;;;;5115495;28;20031;-74
2022/08/04 02:28:29;;;;;;;6.95;4.80;;;27.20;55.30;;;;;;5115305;28;20031;-77
2022/08/04 02:31:03;;;;;;;5.22;4.25;;;27.20;55.50;;;;;;5115596;28;20462;-75
2022/08/04 02:33:44;;;;;;;6.63;4.50;;;26.90;56.30;;;;;;5115086;28;20031;-76
2022/08/04 02:36:19;;;;;;;7.13;5.25;;;26.70;56.80;;;;;;5115217;28;20020;-76
2022/08/04 02:38:55;;;;;;;7.35;4.68;;;26.80;56.30;;;;;;5115003;28;20038;-76
2022/08/04 02:41:24;;;;;;;6.55;4.97;;;26.70;56.90;;;;;;5115158;28;20024;-76
2022/08/04 02:43:54;;;;;;;6.22;4.50;;;26.50;57.60;;;;;;5114782;28;20071;-75
2022/08/04 02:46:21;;;;;;;6.00;4.18;;;26.60;57.30;;;;;;5114530;28;20036;-75
2022/08/04 02:48:49;;;;;;;5.70;4.95;;;26.70;57.40;;;;;;5094490;28;20513;-75
2022/08/04 02:51:18;;;;;;;5.45;4.60;;;26.90;56.60;;;;;;5094487;28;20074;-76
2022/08/04 02:53:46;;;;;;;7.28;4.85;;;27.10;56.10;;;;;;5094318;28;20032;-75
2022/08/04 02:56:16;;;;;;;6.50;5.13;;;27.30;55.80;;;;;;5094178;28;20024;-73
2022/08/04 02:58:48;;;;;;;5.93;5.07;;;27.30;55.70;;;;;;5094136;28;20039;-74
2022/08/04 03:01:13;;;;;;;6.38;4.93;;;27.40;55.50;;;;;;5094239;28;20039;-73
2022/08/04 03:04:09;;;;;;;5.32;4.40;;;27.30;56.00;;;;;;5094301;28;20020;-75
2022/08/04 03:07:16;;;;;;;6.15;5.20;;;27.20;55.70;;;;;;5093957;28;20028;-73
2022/08/04 03:10:15;;;;;;;6.18;5.10;;;26.90;56.60;;;;;;4992557;28;20030;-75
2022/08/04 03:13:11;;;;;;;7.13;4.70;;;27.00;56.20;;;;;;4992323;28;20034;-76
2022/08/04 03:15:53;;;;;;;6.22;5.35;;;27.10;56.00;;;;;;4992251;28;20065;-76
2022/08/04 03:18:31;;;;;;;6.28;5.10;;;27.00;56.30;;;;;;4992511;28;20026;-75
2022/08/04 03:21:20;;;;;;;6.85;5.60;;;27.10;56.40;;;;;;4992418;28;20031;-76
2022/08/04 03:24:20;;;;;;;8.50;5.30;;;27.30;55.80;;;;;;4992487;28;20062;-75
2022/08/04 03:27:30;;;;;;;9.20;5.15;;;27.20;56.40;;;;;;4991835;28;20152;-75
2022/08/04 03:30:12;;;;;;;6.47;5.78;;;27.20;56.20;;;;;;4934337;29;20087;-76
2022/08/04 03:33:06;;;;;;;8.02;5.50;;;27.20;56.30;;;;;;4934076;29;20449;-76
2022/08/04 03:36:05;;;;;;;6.20;5.28;;;27.30;55.60;;;;;;4934271;29;20024;-75
2022/08/04 03:39:15;;;;;;;8.32;5.57;;;27.20;55.80;;;;;;4934245;29;20067;-78
2022/08/04 03:42:05;;;;;;;6.70;5.28;;;27.00;56.40;;;;;;4933974;29;20526;-76
2022/08/04 03:44:51;;;;;;;5.78;4.85;;;27.00;56.20;;;;;;4934176;29;20122;-76
2022/08/04 03:47:44;;;;;;;6.45;4.95;;;26.70;56.40;;;;;;4941373;29;20490;-75
2022/08/04 03:50:45;;;;;;;7.25;5.28;;;26.80;56.50;;;;;;4952950;29;20491;-75
2022/08/04 03:53:14;;;;;;;9.02;5.13;;;27.00;56.40;;;;;;4953273;29;20042;-76
2022/08/04 03:55:54;;;;;;;10.63;4.97;;;27.30;55.90;;;;;;4952913;29;20042;-76
2022/08/04 03:58:31;;;;;;;6.83;5.13;;;27.40;55.70;;;;;;4953055;29;20042;-75
2022/08/04 04:01:02;;;;;;;7.28;5.05;;;27.60;55.40;;;;;;4953071;29;20023;-75
2022/08/04 04:03:36;;;;;;;8.80;5.35;;;27.50;55.60;;;;;;4967602;28;20049;-76
2022/08/04 04:06:52;;;;;;;6.60;4.93;;;27.70;55.50;;;;;;4991564;28;20040;-75
2022/08/04 04:09:38;;;;;;;7.65;5.20;;;27.70;55.20;;;;;;4952976;29;20027;-75
2022/08/04 04:12:39;;;;;;;8.20;4.90;;;27.80;55.40;;;;;;4953128;29;20114;-75
2022/08/04 04:15:25;;;;;;;8.30;5.38;;;27.70;55.60;;;;;;4953000;29;20070;-78
2022/08/04 04:18:19;;;;;;;8.30;5.10;;;27.70;55.40;;;;;;4968837;28;20037;-75
2022/08/04 04:21:04;;;;;;;5.90;5.18;;;27.60;55.70;;;;;;5028256;28;20041;-74
2022/08/04 04:23:50;;;;;;;5.60;4.80;;;27.70;55.70;;;;;;5029167;28;20504;-75
2022/08/04 04:26:44;;;;;;;8.10;5.40;;;27.70;56.00;;;;;;5030056;28;20037;-75
2022/08/04 04:29:12;;;;;;;6.13;5.45;;;27.60;56.50;;;;;;5030477;28;20045;-75
2022/08/04 04:31:49;;;;;;;6.70;5.35;;;27.60;56.90;;;;;;5030284;28;20527;-75
2022/08/04 04:34:20;;;;;;;6.15;5.18;;;27.70;57.00;;;;;;5030779;28;20441;-75
2022/08/04 04:37:07;;;;;;;7.40;5.35;;;27.90;56.70;;;;;;5030672;28;20040;-75
2022/08/04 04:39:50;;;;;;;8.63;5.32;;;27.90;56.70;;;;;;5056869;28;20032;-77
2022/08/04 04:42:50;;;;;;;7.95;5.30;;;27.60;57.40;;;;;;5097144;28;20020;-75
2022/08/04 04:45:36;;;;;;;7.20;5.28;;;27.70;57.00;;;;;;5097088;28;20532;-75
2022/08/04 04:48:23;;;;;;;6.28;5.30;;;27.60;57.10;;;;;;5111174;28;20051;-75
2022/08/04 04:51:13;;;;;;;5.95;5.00;;;27.80;56.70;;;;;;5117480;28;20023;-75
2022/08/04 04:54:06;;;;;;;6.63;5.07;;;27.90;56.50;;;;;;5099173;28;20492;-76
2022/08/04 04:56:34;;;;;;;6.18;5.20;;;27.90;56.50;;;;;;5117846;28;20066;-76
2022/08/04 04:59:01;;;;;;;6.38;5.15;;;27.90;56.80;;;;;;5117339;28;20512;-76
2022/08/04 05:02:05;;;;;;;5.72;4.95;;;28.10;56.50;;;;;;5117339;28;20028;-76
2022/08/04 05:04:58;;;;;;;6.82;5.30;;;28.30;56.50;;;;;;5101151;28;20039;-76
2022/08/04 05:07:49;;;;;;;5.78;4.97;;;28.30;56.40;;;;;;5117125;28;20387;-76
2022/08/04 05:10:39;;;;;;;5.22;4.70;;;28.50;55.80;;;;;;5098992;28;20028;-75
2022/08/04 05:13:08;;;;;;;6.05;4.60;;;28.70;55.80;;;;;;5117144;28;20020;-76
2022/08/04 05:15:36;;;;;;;6.68;5.10;;;28.90;55.80;;;;;;5116742;28;20019;-76
2022/08/04 05:18:06;;;;;;;6.13;4.47;;;29.00;55.60;;;;;;5117004;28;20390;-76
2022/08/04 05:20:40;;;;;;;6.57;5.10;;;29.20;55.50;;;;;;5098557;28;20032;-76
2022/08/04 05:23:15;;;;;;;5.80;5.20;;;29.20;55.20;;;;;;5116616;28;20024;-75
2022/08/04 05:25:58;;;;;;;5.30;4.75;;;29.20;55.60;;;;;;5116685;28;20092;-75
2022/08/04 05:28:33;;;;;;;6.30;4.82;;;29.40;55.00;;;;;;5116389;28;20080;-75
2022/08/04 05:31:08;;;;;;;5.18;4.68;;;29.50;54.40;;;;;;5116667;28;20027;-76
2022/08/04 05:33:50;;;;;;;5.75;4.50;;;29.50;54.80;;;;;;5115917;28;20092;-76
2022/08/04 05:36:19;;;;;;;7.00;4.60;;;29.70;54.40;;;;;;5097707;28;20546;-75
2022/08/04 05:38:49;;;;;;;7.88;5.30;;;29.70;54.20;;;;;;5116254;28;20032;-75
2022/08/04 05:41:15;;;;;;;;;;;29.80;54.70;;;;;;5116932;28;20076;-76
2022/08/04 05:43:44;;;;;;;8.15;5.40;;;30.20;54.40;;;;;;5116532;28;19907;-76
2022/08/04 05:46:12;;;;;;;7.70;4.93;;;30.20;54.20;;;;;;5116327;28;20107;-76
2022/08/04 05:48:38;;;;;;;9.27;5.13;;;30.30;54.30;;;;;;5096483;28;20085;-76
2022/08/04 05:51:07;;;;;;;6.55;4.80;;;30.40;54.40;;;;;;5096044;28;20024;-77
2022/08/04 05:53:34;;;;;;;5.55;4.40;;;30.50;53.30;;;;;;5095620;28;20028;-76
2022/08/04 05:56:02;;;;;;;5.97;4.82;;;30.60;53.30;;;;;;5095500;28;20424;-76
2022/08/04 05:58:31;;;;;;;9.48;4.80;;;30.60;53.60;;;;;;5095519;28;20024;-75
2022/08/04 06:01:00;;;;;;;7.93;5.20;;;30.80;53.40;;;;;;5095607;28;20097;-75
2022/08/04 06:03:29;;;;;;;6.80;4.90;;;31.00;53.30;;;;;;5095520;28;20396;-75
2022/08/04 06:05:57;;;;;;;6.47;5.10;;;31.20;53.20;;;;;;5095707;28;20016;-73
2022/08/04 06:08:23;;;;;;;5.53;4.60;;;31.30;52.90;;;;;;5094928;28;20035;-76
2022/08/04 06:10:51;;;;;;;6.32;4.72;;;31.40;52.60;;;;;;5093958;28;20024;-76
2022/08/04 06:13:24;;;;;;;6.45;4.82;;;31.60;52.50;;;;;;5093683;28;20016;-75
2022/08/04 06:15:54;;;;;;;6.00;4.50;;;31.70;53.10;;;;;;5092152;28;20111;-76
2022/08/04 06:18:23;;;;;;;5.50;4.47;;;31.80;52.30;;;;;;4737515;28;10000559;-75
2022/08/04 06:20:51;;;;;;;8.38;4.90;;;31.90;52.10;;;;;;5089509;28;20016;-75
2022/08/04 06:23:19;;;;;;;7.13;4.70;;;31.90;52.10;;;;;;5091856;28;20456;-77
2022/08/04 06:25:49;;;;;;;7.40;4.70;;;32.00;51.80;;;;;;5091981;28;20032;-78
2022/08/04 06:28:16;;;;;;;;;;;32.10;51.60;;;;;;5092161;28;20076;-76
2022/08/04 06:30:46;;;;;;;5.40;4.90;;;32.00;51.90;;;;;;5091936;28;19980;-77
2022/08/04 06:33:23;;;;;;;;;;;32.00;52.00;;;;;;5091976;28;20024;-77
2022/08/04 06:35:56;;;;;;;9.55;4.95;;;32.10;51.90;;;;;;5091712;28;19908;-76
2022/08/04 06:38:24;;;;;;;7.50;4.30;;;32.10;50.90;;;;;;5091610;28;20016;-77
2022/08/04 06:40:51;;;;;;;5.32;4.20;;;32.20;51.60;;;;;;5091388;28;20016;-78
2022/08/04 06:43:17;;;;;;;6.47;4.38;;;32.40;51.70;;;;;;5091975;28;20024;-76
2022/08/04 06:45:44;;;;;;;7.13;4.80;;;32.60;51.20;;;;;;5091817;28;20012;-73
2022/08/04 06:48:13;;;;;;;6.28;4.53;;;32.70;51.40;;;;;;5107033;28;20121;-77
2022/08/04 06:50:40;;;;;;;5.50;4.53;;;32.70;50.60;;;;;;5112005;28;20061;-76
2022/08/04 06:53:06;;;;;;;6.90;3.72;;;32.80;50.10;;;;;;5111363;28;20085;-78
2022/08/04 06:55:33;;;;;;;7.50;4.22;;;32.90;48.50;;;;;;5112291;28;20019;-81
2022/08/04 06:58:00;;;;;;;4.80;3.70;;;32.10;49.60;;;;;;5112110;28;20031;-76
2022/08/04 07:00:28;;;;;;;5.88;3.90;;;31.50;50.40;;;;;;5112611;28;20023;-77
2022/08/04 07:02:54;;;;;;;4.43;3.63;;;31.00;51.20;;;;;;5114897;28;20043;-77
2022/08/04 07:05:21;;;;;;;6.65;3.80;;;30.90;51.00;;;;;;5114716;28;20027;-77
2022/08/04 07:07:47;;;;;;;5.22;3.60;;;31.30;50.80;;;;;;5114686;28;20027;-78
2022/08/04 07:10:14;;;;;;;5.75;3.50;;;31.30;49.70;;;;;;5115531;28;20058;-77
2022/08/04 07:12:40;;;;;;;8.52;3.35;;;31.40;49.80;;;;;;5114930;28;20023;-81
2022/08/04 07:15:08;;;;;;;5.85;2.90;;;31.40;47.60;;;;;;5114664;28;20062;-77
2022/08/04 07:17:38;;;;;;;12.18;3.83;;;31.60;48.50;;;;;;5113260;28;20485;-77
2022/08/04 07:20:04;;;;;;;11.00;3.40;;;31.80;48.60;;;;;;5115167;28;20560;-77
2022/08/04 07:22:31;;;;;;;9.35;3.17;;;31.80;48.20;;;;;;5114780;28;20028;-76
2022/08/04 07:24:58;;;;;;;5.68;2.95;;;31.50;48.60;;;;;;5114387;28;20436;-76
2022/08/04 07:27:24;;;;;;;4.90;2.85;;;31.60;48.70;;;;;;5114165;28;20084;-76
2022/08/04 07:29:51;;;;;;;4.13;3.20;;;31.80;48.30;;;;;;5114968;28;20390;-77
2022/08/04 07:32:20;;;;;;;5.18;3.00;;;31.90;47.80;;;;;;5114399;28;20034;-78
2022/08/04 07:34:50;;;;;;;4.28;3.10;;;32.00;48.10;;;;;;5114208;28;20027;-78
2022/08/04 07:37:17;;;;;;;5.53;3.13;;;32.00;47.40;;;;;;5114677;28;20116;-77
2022/08/04 07:39:43;;;;;;;6.22;3.22;;;32.00;48.30;;;;;;5113860;28;20076;-76
2022/08/04 07:42:09;;;;;;;4.88;2.80;;;32.20;48.30;;;;;;4758662;28;10000431;-76
2022/08/04 07:44:35;;;;;;;5.15;3.17;;;32.30;47.50;;;;;;5110865;28;20066;-76
2022/08/04 07:47:02;;;;;;;9.55;3.45;;;32.30;48.00;;;;;;5110991;28;20143;-78
2022/08/04 07:49:30;;;;;;;4.35;3.20;;;32.30;46.80;;;;;;5111103;28;20054;-76
2022/08/04 07:51:56;;;;;;;4.10;3.08;;;32.30;48.00;;;;;;5092815;28;20027;-76
2022/08/04 07:54:22;;;;;;;5.10;3.28;;;32.40;47.60;;;;;;5110830;28;20073;-77
2022/08/04 07:56:50;;;;;;;5.43;2.95;;;32.30;47.80;;;;;;5110790;28;20023;-76
2022/08/04 07:59:19;;;;;;;4.72;2.90;;;32.30;47.80;;;;;;5110951;28;20045;-77
2022/08/04 08:01:46;;;;;;;6.70;3.20;;;32.40;47.70;;;;;;5110906;28;20038;-78
2022/08/04 08:04:14;;;;;;;5.50;3.20;;;32.50;47.50;;;;;;5110694;28;20041;-76
2022/08/04 08:06:40;;;;;;;3.97;3.00;;;32.40;47.20;;;;;;5110361;28;20051;-75
2022/08/04 08:09:14;;;;;;;5.30;3.00;;;32.70;47.40;;;;;;5110705;28;20482;-75
2022/08/04 08:11:48;;;;;;;4.18;3.10;;;32.80;46.40;;;;;;5111101;28;20031;-76
2022/08/04 08:14:15;;;;;;;5.53;3.10;;;32.70;47.00;;;;;;5113140;28;20389;-76
2022/08/04 08:16:41;;;;;;;8.60;3.13;;;32.90;46.60;;;;;;5110337;28;20019;-77
2022/08/04 08:19:08;;;;;;;3.97;3.13;;;33.00;47.20;;;;;;5112780;28;20035;-76
2022/08/04 08:21:34;;;;;;;5.18;3.30;;;33.50;47.00;;;;;;5112355;28;20023;-76
2022/08/04 08:24:00;;;;;;;4.45;3.13;;;33.30;47.40;;;;;;5109936;28;20024;-76
2022/08/04 08:26:27;;;;;;;5.03;3.10;;;33.10;46.20;;;;;;5112325;28;20488;-77
2022/08/04 08:28:53;;;;;;;8.68;3.50;;;33.10;46.90;;;;;;5112732;28;20031;-77
2022/08/04 08:31:19;;;;;;;8.38;3.35;;;33.30;46.80;;;;;;5109587;28;20011;-78
2022/08/04 08:33:46;;;;;;;7.53;3.40;;;33.50;47.60;;;;;;5112424;28;20092;-78
2022/08/04 08:36:35;;;;;;;7.43;3.25;;;33.80;47.30;;;;;;5112455;28;20435;-78
2022/08/04 08:39:14;;;;;;;5.57;3.40;;;33.90;46.40;;;;;;5113968;28;20107;-77
2022/08/04 08:42:03;;;;;;;7.63;3.00;;;33.60;46.90;;;;;;5114009;28;20035;-78
2022/08/04 08:44:55;;;;;;;4.80;2.90;;;33.80;47.00;;;;;;5031171;28;20124;-80
2022/08/04 08:47:29;;;;;;;6.22;3.00;;;33.80;46.10;;;;;;5031121;28;20540;-77
2022/08/04 08:49:59;;;;;;;3.78;3.20;;;33.90;47.10;;;;;;5031628;28;20429;-79
2022/08/04 08:52:43;;;;;;;7.68;3.20;;;34.50;45.80;;;;;;5030772;28;20412;-74
2022/08/04 08:55:27;;;;;;;13.50;3.10;;;34.30;44.60;;;;;;5030825;28;20099;-76
2022/08/04 08:58:10;;;;;;;4.50;2.80;;;33.80;45.80;;;;;;5030846;28;20076;-79
2022/08/04 09:01:13;;;;;;;6.15;3.20;;;34.00;44.70;;;;;;5031391;28;20382;-77
2022/08/04 09:04:15;;;;;;;5.50;3.42;;;33.80;46.70;;;;;;5030650;28;20068;-78
2022/08/04 09:07:02;;;;;;;4.85;2.70;;;34.10;45.00;;;;;;5029224;28;20025;-81
2022/08/04 09:10:00;;;;;;;3.90;2.88;;;34.40;44.80;;;;;;5029206;28;20400;-80
2022/08/04 09:12:54;;;;;;;8.68;3.38;;;34.90;46.50;;;;;;5029810;28;20365;-80
2022/08/04 09:15:58;;;;;;;5.63;2.80;;;35.10;44.60;;;;;;5029638;28;20030;-80
2022/08/04 09:18:26;;;;;;;5.45;2.60;;;34.40;43.80;;;;;;4674939;28;10000471;-77
2022/08/04 09:21:12;;;;;;;3.88;2.65;;;34.50;44.40;;;;;;5042308;28;20701;-82
2022/08/04 09:24:00;;;;;;;10.07;2.70;;;34.50;43.20;;;;;;5071699;28;20076;-77
2022/08/04 09:26:33;;;;;;;4.53;2.50;;;34.30;43.70;;;;;;5100028;28;20024;-77
2022/08/04 09:29:19;;;;;;;4.78;2.45;;;34.80;43.80;;;;;;5113464;28;20036;-77
2022/08/04 09:32:07;;;;;;;5.05;2.50;;;34.80;42.50;;;;;;5110876;28;20024;-76
2022/08/04 09:34:49;;;;;;;5.13;2.65;;;34.50;44.10;;;;;;5088973;28;20028;-79
2022/08/04 09:37:27;;;;;;;5.25;2.80;;;34.90;44.00;;;;;;5095151;28;20022;-77
2022/08/04 09:40:11;;;;;;;6.78;2.58;;;35.30;42.50;;;;;;5112223;28;20077;-77
2022/08/04 09:43:01;;;;;;;5.93;2.72;;;35.30;44.20;;;;;;5095023;28;20077;-78
2022/08/04 09:45:31;;;;;;;4.10;2.70;;;35.40;43.80;;;;;;5113825;28;20103;-79
2022/08/04 09:48:05;;;;;;;3.40;2.53;;;35.20;42.30;;;;;;5082874;28;20086;-78
2022/08/04 09:50:38;;;;;;;6.63;3.17;;;35.20;43.60;;;;;;5092717;28;20468;-79
2022/08/04 09:53:41;;;;;;;3.70;2.60;;;35.80;42.70;;;;;;5092379;28;20108;-78
2022/08/04 09:56:19;;;;;;;4.80;2.60;;;36.10;42.70;;;;;;5093012;28;20121;-77
2022/08/04 09:59:02;;;;;;;4.47;2.50;;;36.50;44.00;;;;;;5092270;28;20558;-78
2022/08/04 10:01:30;;;;;;;4.18;2.70;;;36.90;42.90;;;;;;5092686;28;20051;-79
2022/08/04 10:04:02;;;;;;;4.88;2.90;;;37.00;42.10;;;;;;5092742;28;20081;-90
2022/08/04 10:07:14;;;;;;;6.13;2.70;;;36.60;42.30;;;;;;5093403;28;20028;-80
2022/08/04 10:09:49;;;;;;;7.50;3.13;;;36.60;42.40;;;;;;4990349;28;20555;-77
2022/08/04 10:12:20;;;;;;;4.45;2.75;;;36.70;43.20;;;;;;4974748;28;20034;-79
2022/08/04 10:15:01;;;;;;;7.47;3.47;;;36.10;42.90;;;;;;4977629;28;20034;-78
2022/08/04 10:17:46;;;;;;;3.70;2.50;;;35.90;44.30;;;;;;4993197;28;20042;-78
2022/08/04 10:20:30;;;;;;;4.90;2.90;;;36.20;42.50;;;;;;4976507;28;20379;-79
2022/08/04 10:23:33;;;;;;;4.57;2.80;;;36.30;42.70;;;;;;4993646;28;20437;-75
2022/08/04 10:26:26;;;;;;;3.35;2.42;;;36.30;41.70;;;;;;4994072;28;20410;-78
2022/08/04 10:29:02;;;;;;;4.47;2.80;;;36.40;42.70;;;;;;4993602;28;20037;-82
2022/08/04 10:31:38;;;;;;;4.68;2.50;;;36.50;42.20;;;;;;4993156;28;20026;-86
2022/08/04 10:34:12;;;;;;;7.35;2.90;;;36.70;43.30;;;;;;4977307;28;20038;-78
2022/08/04 10:37:17;;;;;;;4.80;2.72;;;37.00;42.60;;;;;;4992111;28;20058;-80
2022/08/04 10:42:48;;;;;;;3.75;2.60;;;37.20;41.70;;;;;;5008210;28;20057;-78
2022/08/04 10:45:18;;;;;;;3.83;2.70;;;37.20;42.00;;;;;;5094992;28;20023;-80
2022/08/04 10:48:00;;;;;;;4.88;2.80;;;37.70;43.00;;;;;;5105017;28;20065;-82
2022/08/04 10:50:28;;;;;;;4.22;2.85;;;38.00;42.00;;;;;;5095824;28;20036;-80
2022/08/04 10:53:17;;;;;;;4.22;2.63;;;38.10;41.30;;;;;;5114725;28;20420;-80
2022/08/04 10:55:49;;;;;;;5.43;2.80;;;38.60;42.40;;;;;;5114620;28;20069;-77
2022/08/04 10:58:24;;;;;;;4.95;2.70;;;38.60;41.80;;;;;;5096824;28;20019;-79
2022/08/04 11:00:55;;;;;;;4.20;2.60;;;38.30;42.20;;;;;;5096754;28;20027;-79
2022/08/04 11:03:35;;;;;;;7.78;2.83;;;38.30;41.30;;;;;;5115293;28;20023;-78
2022/08/04 11:06:04;;;;;;;5.43;2.55;;;38.30;42.40;;;;;;5115795;28;20058;-74
2022/08/04 11:08:41;;;;;;;4.55;2.70;;;37.70;42.20;;;;;;5115478;28;20067;-79
2022/08/04 11:11:12;;;;;;;3.45;2.70;;;37.10;41.80;;;;;;5115493;28;20106;-82
2022/08/04 11:13:44;;;;;;;4.95;3.00;;;36.00;42.60;;;;;;5114598;28;20484;-79
2022/08/04 11:16:18;;;;;;;5.88;2.70;;;36.20;42.60;;;;;;5115180;28;20027;-79
2022/08/04 11:19:09;;;;;;;6.00;2.83;;;36.70;43.60;;;;;;5114793;28;20023;-80
2022/08/04 11:21:50;;;;;;;4.85;2.95;;;37.30;42.30;;;;;;5114049;28;20027;-81
2022/08/04 11:24:24;;;;;;;;;;;37.70;42.20;;;;;;5109314;28;20085;-79
2022/08/04 11:26:58;;;;;;;12.98;3.17;;;38.00;41.60;;;;;;5115019;28;19903;-79
2022/08/04 11:29:54;;;;;;;5.55;2.85;;;38.20;41.90;;;;;;5114932;28;20028;-80
2022/08/04 11:32:30;;;;;;;4.95;2.80;;;38.30;42.30;;;;;;5114819;28;20054;-77
2022/08/04 11:35:02;;;;;;;4.03;2.92;;;38.40;41.40;;;;;;5115054;28;20031;-79
2022/08/04 11:37:49;;;;;;;4.30;3.00;;;38.20;42.30;;;;;;5114563;28;20020;-80
2022/08/04 11:40:20;;;;;;;7.05;3.00;;;37.40;42.10;;;;;;5114624;28;20031;-78
2022/08/04 11:42:59;;;;;;;5.80;3.33;;;36.80;42.00;;;;;;5095881;28;20382;-78
2022/08/04 11:45:39;;;;;;;4.33;2.73;;;37.10;42.10;;;;;;5114287;28;20024;-77
2022/08/04 11:48:18;;;;;;;6.77;3.17;;;37.60;43.20;;;;;;5113943;28;20047;-79
2022/08/04 11:50:50;;;;;;;4.43;2.97;;;38.10;42.00;;;;;;5114389;28;20026;-79
2022/08/04 11:53:20;;;;;;;7.63;2.97;;;38.10;41.80;;;;;;5114865;28;20020;-80
2022/08/04 11:55:49;;;;;;;5.32;3.08;;;37.50;41.90;;;;;;5114807;28;20091;-79
2022/08/04 11:58:15;;;;;;;5.05;2.90;;;37.30;43.00;;;;;;5114580;28;20023;-80
2022/08/04 12:00:52;;;;;;;3.90;2.90;;;37.80;42.10;;;;;;5095620;28;20550;-77
2022/08/04 12:03:42;;;;;;;6.55;2.97;;;37.70;41.50;;;;;;5114127;28;20533;-79
2022/08/04 12:06:20;;;;;;;5.93;3.28;;;38.00;42.10;;;;;;5113768;28;20072;-77
2022/08/04 12:08:57;;;;;;;4.57;2.53;;;38.10;41.50;;;;;;5114234;28;20039;-79
2022/08/04 12:12:13;;;;;;;4.18;2.80;;;38.40;42.10;;;;;;4835529;28;10000532;-80
2022/08/04 12:14:47;;;;;;;5.00;2.97;;;38.40;41.70;;;;;;5113445;28;20206;-76
2022/08/04 12:17:20;;;;;;;8.00;3.20;;;38.20;42.10;;;;;;5112800;28;20015;-76
2022/08/04 12:20:01;;;;;;;5.05;2.97;;;38.20;41.50;;;;;;5094107;28;20420;-79
2022/08/04 12:22:31;;;;;;;6.28;3.17;;;38.20;41.60;;;;;;5112406;28;20118;-80
2022/08/04 12:25:10;;;;;;;6.03;2.92;;;38.20;41.30;;;;;;5094425;28;20074;-77
2022/08/04 12:27:52;;;;;;;15.30;4.07;;;38.10;41.30;;;;;;5092424;28;20036;-79
2022/08/04 12:30:19;;;;;;;4.18;2.80;;;38.20;41.60;;;;;;5093780;28;20091;-85
2022/08/04 12:33:00;;;;;;;4.40;3.08;;;38.20;41.20;;;;;;5114003;28;20054;-78
2022/08/04 12:35:41;;;;;;;4.28;2.97;;;38.40;41.50;;;;;;5113786;28;20020;-77
2022/08/04 12:38:20;;;;;;;7.05;3.85;;;38.20;41.20;;;;;;5113700;28;20023;-76
2022/08/04 12:40:53;;;;;;;4.55;2.83;;;38.10;42.70;;;;;;5095146;28;20023;-78
2022/08/04 12:43:25;;;;;;;3.97;2.90;;;38.30;41.30;;;;;;5113348;28;20489;-82
2022/08/04 12:46:02;;;;;;;5.10;3.10;;;38.50;42.30;;;;;;5113690;28;20055;-78
2022/08/04 12:48:30;;;;;;;3.70;2.88;;;38.50;42.30;;;;;;5113533;28;20051;-88
2022/08/04 12:50:58;;;;;;;4.05;3.15;;;38.40;42.00;;;;;;5095396;28;20032;-77
2022/08/04 12:53:35;;;;;;;4.70;2.80;;;38.10;41.10;;;;;;5113211;28;20513;-77
2022/08/04 12:56:02;;;;;;;8.48;3.28;;;38.00;41.40;;;;;;4757078;28;9999838;-76
2022/08/04 12:58:32;;;;;;;6.55;3.03;;;37.80;41.50;;;;;;5109918;28;20049;-77
2022/08/04 13:01:01;;;;;;;11.50;3.47;;;37.20;41.10;;;;;;5113839;28;20065;-78
2022/08/04 13:03:35;;;;;;;4.20;3.30;;;37.20;42.00;;;;;;5114951;28;20032;-79
2022/08/04 13:06:01;;;;;;;5.75;3.25;;;37.70;42.00;;;;;;5096207;28;20026;-78
2022/08/04 13:08:27;;;;;;;3.72;3.08;;;38.10;41.80;;;;;;5113803;28;20031;-81
2022/08/04 13:10:57;;;;;;;4.85;3.35;;;38.20;41.30;;;;;;5113664;28;20039;-77
2022/08/04 13:13:28;;;;;;;5.03;3.10;;;38.40;41.30;;;;;;5113521;28;20016;-79
2022/08/04 13:16:02;;;;;;;5.90;3.13;;;38.50;41.00;;;;;;5113851;28;20027;-79
2022/08/04 13:18:30;;;;;;;6.35;3.60;;;38.10;40.20;;;;;;5114564;28;20016;-79
2022/08/04 13:21:11;;;;;;;5.03;2.97;;;37.80;41.00;;;;;;5116902;28;20024;-79
2022/08/04 13:23:38;;;;;;;3.75;3.00;;;37.90;41.40;;;;;;5116015;28;20096;-78
2022/08/04 13:26:05;;;;;;;3.75;2.90;;;38.00;40.80;;;;;;5115294;28;20022;-76
2022/08/04 13:28:33;;;;;;;3.60;2.95;;;38.20;40.30;;;;;;5116224;28;20060;-77
2022/08/04 13:31:01;;;;;;;7.60;3.17;;;38.30;40.70;;;;;;5116187;28;20012;-78
2022/08/04 13:33:36;;;;;;;4.43;2.95;;;38.60;41.70;;;;;;5112947;28;20016;-77
2022/08/04 13:36:04;;;;;;;7.13;2.97;;;38.30;41.80;;;;;;5114912;28;20024;-76
2022/08/04 13:38:32;;;;;;;4.90;2.92;;;38.00;40.60;;;;;;5115233;28;20020;-77